Terminal Aerodrome Forecast
Issued by NWS Grand Forks, ND

Home | Current Version | Previous Version | Graphics & Text | Print | Product List | Glossary On
Versions: 1 2 3 4 5 6 7 8 9 10 11 12 13 14 15 16 17 18
116
FTUS43 KFGF 272339
TAFFAR
TAF
KFAR 272339Z 2800/2824 04004KT P6SM SKC
     FM280500 04006KT 5SM BR FEW200
     FM280700 03005KT 2SM BR SCT008
     FM281100 04005KT 1SM BR BKN008
     FM281500 05004KT 3SM BR SCT200
     FM281600 06004KT P6SM SCT150=

USA.gov is the U.S. government's official web portal to all federal, state and local government web resources and services.